createdAt,value
2022-11-12T00:00:04.370Z,6.80
2022-11-12T00:02:49.604Z,6.68
2022-11-12T00:05:35.820Z,9.25
2022-11-12T00:08:22.909Z,7.70
2022-11-12T00:11:08.171Z,9.25
2022-11-12T00:13:53.768Z,8.93
2022-11-12T00:16:38.771Z,6.85
2022-11-12T00:19:24.297Z,8.50
2022-11-12T00:22:09.611Z,8.88
2022-11-12T00:24:54.844Z,8.80
2022-11-12T00:27:40.372Z,7.70
2022-11-12T00:30:25.652Z,7.00
2022-11-12T00:33:10.861Z,6.47
2022-11-12T00:35:59.710Z,6.15
2022-11-12T00:38:45.482Z,6.13
2022-11-12T00:41:30.710Z,5.80
2022-11-12T00:44:16.169Z,6.25
2022-11-12T00:47:01.720Z,8.07
2022-11-12T00:49:46.912Z,6.80
2022-11-12T00:52:32.200Z,6.80
2022-11-12T00:55:17.617Z,7.18
2022-11-12T00:58:02.870Z,6.40
2022-11-12T01:00:48.452Z,6.43
2022-11-12T01:03:33.832Z,6.93
2022-11-12T01:06:21.888Z,7.07
2022-11-12T01:09:08.512Z,9.10
2022-11-12T01:11:53.641Z,7.95
2022-11-12T01:14:39.251Z,8.32
2022-11-12T01:17:24.797Z,32.95
2022-11-12T01:20:10.620Z,8.90
2022-11-12T01:22:55.997Z,10.30
2022-11-12T01:25:41.474Z,8.48
2022-11-12T01:28:27.247Z,18.10
2022-11-12T01:31:26.113Z,27.40
2022-11-12T01:34:11.427Z,22.53
2022-11-12T01:36:57.034Z,32.33
2022-11-12T01:39:42.710Z,24.30
2022-11-12T01:42:33.066Z,31.10
2022-11-12T01:45:18.854Z,155.88
2022-11-12T01:48:04.671Z,84.47
2022-11-12T01:50:50.534Z,88.47
2022-11-12T01:53:41.745Z,194.07
2022-11-12T01:56:30.286Z,406.60
2022-11-12T01:59:24.902Z,270.00
2022-11-12T02:02:10.907Z,117.00
2022-11-12T02:04:57.877Z,89.95
2022-11-12T02:07:45.864Z,74.50
2022-11-12T02:10:31.613Z,249.85
2022-11-12T02:13:36.761Z,111.85
2022-11-12T02:16:22.518Z,54.17
2022-11-12T02:19:11.351Z,107.70
2022-11-12T02:21:56.596Z,42.33
2022-11-12T02:24:41.747Z,192.40
2022-11-12T02:27:27.771Z,232.32
2022-11-12T02:30:13.079Z,193.00
2022-11-12T02:32:58.924Z,142.48
2022-11-12T02:35:44.180Z,281.70
2022-11-12T02:38:29.762Z,151.45
2022-11-12T02:41:15.644Z,85.32
2022-11-12T02:44:01.441Z,61.17
2022-11-12T02:46:46.735Z,38.67
2022-11-12T02:49:32.336Z,89.07
2022-11-12T02:52:17.875Z,143.23
2022-11-12T02:55:03.716Z,165.82
2022-11-12T02:57:49.119Z,148.77
2022-11-12T03:00:34.821Z,163.13
2022-11-12T03:03:20.363Z,97.82
2022-11-12T03:06:06.404Z,121.90
2022-11-12T03:08:51.559Z,147.77
2022-11-12T03:11:37.159Z,187.18
2022-11-12T03:14:22.704Z,192.65
2022-11-12T03:17:08.030Z,158.40
2022-11-12T03:19:53.630Z,166.45
2022-11-12T03:22:39.747Z,191.30
2022-11-12T03:25:26.217Z,121.22
2022-11-12T03:28:14.140Z,86.05
2022-11-12T03:31:00.912Z,78.50
2022-11-12T03:33:46.317Z,64.18
2022-11-12T03:36:31.892Z,59.73
2022-11-12T03:39:17.493Z,47.60
2022-11-12T03:42:03.831Z,50.53
2022-11-12T03:44:49.064Z,77.40
2022-11-12T03:47:34.384Z,41.95
2022-11-12T03:50:21.644Z,54.03
2022-11-12T03:53:07.326Z,65.63
2022-11-12T03:55:53.165Z,147.57
2022-11-12T03:58:38.424Z,296.48
2022-11-12T04:01:23.714Z,184.52
2022-11-12T04:04:10.075Z,172.05
2022-11-12T04:07:13.679Z,358.75
2022-11-12T04:09:59.004Z,406.53
2022-11-12T04:13:02.884Z,436.92
2022-11-12T04:16:08.030Z,397.58
2022-11-12T04:19:14.464Z,398.38
2022-11-12T04:22:03.669Z,312.25
2022-11-12T04:25:07.775Z,234.60
2022-11-12T04:27:53.262Z,151.60
2022-11-12T04:30:38.790Z,158.48
2022-11-12T04:33:24.157Z,71.90
2022-11-12T04:36:09.682Z,58.15
2022-11-12T04:38:55.175Z,72.65
2022-11-12T04:41:58.950Z,33.10
2022-11-12T04:45:03.847Z,28.55
2022-11-12T04:47:49.231Z,33.90
2022-11-12T04:50:34.919Z,26.70
2022-11-12T04:53:20.400Z,28.30
2022-11-12T04:56:06.059Z,25.63
2022-11-12T04:58:51.233Z,23.90
2022-11-12T05:01:36.459Z,106.85
2022-11-12T05:04:22.095Z,57.28
2022-11-12T05:07:08.113Z,26.88
2022-11-12T05:09:53.545Z,71.32
2022-11-12T05:12:39.266Z,62.90
2022-11-12T05:15:24.581Z,159.20
2022-11-12T05:18:09.788Z,30.92
2022-11-12T05:20:55.197Z,17.95
2022-11-12T05:23:40.443Z,16.58
2022-11-12T05:26:25.744Z,15.82
2022-11-12T05:29:11.318Z,16.45
2022-11-12T05:31:57.026Z,23.77
2022-11-12T05:34:42.748Z,21.38
2022-11-12T05:37:28.204Z,28.35
2022-11-12T05:40:13.849Z,29.75
2022-11-12T05:42:59.084Z,94.85
2022-11-12T05:45:44.609Z,34.97
2022-11-12T05:48:30.574Z,24.10
2022-11-12T05:51:16.667Z,32.53
2022-11-12T05:54:02.354Z,86.07
2022-11-12T05:56:47.895Z,238.30
2022-11-12T05:59:33.607Z,133.23
2022-11-12T06:02:18.918Z,16.42
2022-11-12T06:05:04.958Z,18.73
2022-11-12T06:07:50.217Z,38.75
2022-11-12T06:10:35.842Z,85.90
2022-11-12T06:13:23.142Z,156.25
2022-11-12T06:16:08.994Z,31.00
2022-11-12T06:18:54.198Z,26.10
2022-11-12T06:21:39.832Z,20.75
2022-11-12T06:24:27.546Z,34.47
2022-11-12T06:27:14.634Z,20.45
2022-11-12T06:30:00.164Z,24.77
2022-11-12T06:32:49.646Z,28.83
2022-11-12T06:35:37.116Z,19.63
2022-11-12T06:38:26.095Z,18.50
2022-11-12T06:41:13.323Z,18.45
2022-11-12T06:43:58.742Z,18.40
2022-11-12T06:46:44.089Z,23.15
2022-11-12T06:49:29.653Z,20.85
2022-11-12T06:52:16.802Z,19.23
2022-11-12T06:55:02.620Z,28.80
2022-11-12T06:57:52.576Z,22.07
2022-11-12T07:00:38.075Z,18.35
2022-11-12T07:03:23.833Z,17.85
2022-11-12T07:06:14.740Z,17.27
2022-11-12T07:09:00.097Z,23.95
2022-11-12T07:11:45.467Z,23.77
2022-11-12T07:14:30.734Z,22.52
2022-11-12T07:17:16.054Z,30.15
2022-11-12T07:20:03.922Z,26.37
2022-11-12T07:22:49.793Z,17.98
2022-11-12T07:25:35.163Z,18.98
2022-11-12T07:28:21.322Z,15.52
2022-11-12T07:31:10.104Z,19.10
2022-11-12T07:33:55.547Z,19.50
2022-11-12T07:36:41.124Z,17.77
2022-11-12T07:39:26.283Z,17.25
2022-11-12T07:42:11.589Z,15.85
2022-11-12T07:44:57.255Z,18.42
2022-11-12T07:47:42.657Z,17.60
2022-11-12T07:50:28.020Z,17.35
2022-11-12T07:53:13.089Z,21.15
2022-11-12T07:56:00.217Z,16.48
2022-11-12T07:58:46.073Z,15.32
2022-11-12T08:01:35.847Z,18.50
2022-11-12T08:04:21.083Z,16.80
2022-11-12T08:07:06.721Z,16.88
2022-11-12T08:09:52.015Z,19.60
2022-11-12T08:12:37.486Z,21.50
2022-11-12T08:15:22.799Z,17.48
2022-11-12T08:18:08.381Z,26.65
2022-11-12T08:20:59.915Z,39.17
2022-11-12T08:23:46.214Z,43.57
2022-11-12T08:26:31.770Z,36.25
2022-11-12T08:29:17.258Z,33.58
2022-11-12T08:32:02.532Z,22.80
2022-11-12T08:34:48.117Z,18.45
2022-11-12T08:37:33.557Z,14.27
2022-11-12T08:40:18.920Z,15.95
2022-11-12T08:43:07.939Z,14.93
2022-11-12T08:45:53.682Z,15.98
2022-11-12T08:48:40.225Z,13.82
2022-11-12T08:51:26.172Z,15.98
2022-11-12T08:54:11.544Z,14.10
2022-11-12T08:56:57.010Z,13.65
2022-11-12T08:59:42.447Z,16.05
2022-11-12T09:02:27.841Z,14.02
2022-11-12T09:05:13.148Z,11.90
2022-11-12T09:07:59.816Z,12.75
2022-11-12T09:10:46.360Z,12.00
2022-11-12T09:13:31.867Z,12.77
2022-11-12T09:16:18.177Z,14.70
2022-11-12T09:19:03.744Z,10.55
2022-11-12T09:21:49.287Z,16.75
2022-11-12T09:24:35.030Z,13.90
2022-11-12T09:27:20.789Z,10.48
2022-11-12T09:30:06.850Z,12.20
2022-11-12T09:32:57.977Z,11.77
2022-11-12T09:35:43.922Z,14.50
2022-11-12T09:38:30.090Z,14.52
2022-11-12T09:41:32.401Z,13.52
2022-11-12T09:44:20.806Z,11.55
2022-11-12T09:47:25.109Z,12.90
2022-11-12T09:50:25.944Z,11.30
2022-11-12T09:53:30.310Z,10.40
2022-11-12T09:56:21.958Z,16.30
2022-11-12T09:59:13.976Z,15.82
2022-11-12T10:02:33.018Z,11.18
2022-11-12T10:05:36.309Z,12.05
2022-11-12T10:08:39.517Z,11.63
2022-11-12T10:12:19.098Z,12.57
2022-11-12T10:15:44.557Z,11.10
2022-11-12T10:18:43.817Z,10.50
2022-11-12T10:22:11.938Z,14.52
2022-11-12T10:24:59.754Z,12.55
2022-11-12T10:27:46.231Z,13.43
2022-11-12T10:30:32.089Z,14.55
2022-11-12T10:33:17.268Z,13.55
2022-11-12T10:36:20.416Z,14.05
2022-11-12T10:39:06.136Z,13.97
2022-11-12T10:42:07.024Z,13.05
2022-11-12T10:44:52.465Z,12.85
2022-11-12T10:47:43.985Z,12.77
2022-11-12T10:50:35.333Z,13.27
2022-11-12T10:53:40.498Z,13.10
2022-11-12T10:56:30.531Z,15.23
2022-11-12T10:59:26.145Z,12.05
2022-11-12T11:02:19.187Z,13.85
2022-11-12T11:05:44.031Z,11.93
2022-11-12T11:08:36.284Z,10.60
2022-11-12T11:11:28.057Z,12.43
2022-11-12T11:14:22.712Z,11.70
2022-11-12T11:17:18.859Z,10.45
2022-11-12T11:20:11.169Z,10.20
2022-11-12T11:23:26.455Z,10.20
2022-11-12T11:26:34.978Z,10.50
2022-11-12T11:29:58.242Z,10.63
2022-11-12T11:33:07.546Z,9.55
2022-11-12T11:36:13.027Z,10.20
2022-11-12T11:39:12.284Z,9.95
2022-11-12T11:42:19.367Z,9.50
2022-11-12T11:45:20.784Z,11.77
2022-11-12T11:48:15.323Z,8.80
2022-11-12T11:51:38.582Z,11.27
2022-11-12T11:54:48.894Z,10.15
2022-11-12T11:57:40.154Z,12.57
2022-11-12T12:00:35.385Z,13.32
2022-11-12T12:03:32.880Z,9.33
2022-11-12T12:06:27.965Z,9.65
2022-11-12T12:09:33.381Z,8.98
2022-11-12T12:12:26.461Z,9.23
2022-11-12T12:15:29.864Z,10.37
2022-11-12T12:18:39.542Z,8.70
2022-11-12T12:21:26.532Z,11.50
2022-11-12T12:24:17.867Z,12.13
2022-11-12T12:27:12.321Z,12.35
2022-11-12T12:30:24.760Z,14.13
2022-11-12T12:33:29.016Z,10.63
2022-11-12T12:36:36.422Z,10.27
2022-11-12T12:39:47.960Z,12.90
2022-11-12T12:43:00.158Z,12.07
2022-11-12T12:45:47.080Z,13.25
2022-11-12T12:48:39.418Z,11.15
2022-11-12T12:51:29.144Z,9.52
2022-11-12T12:54:36.207Z,10.43
2022-11-12T12:57:36.455Z,10.98
2022-11-12T13:00:35.496Z,9.98
2022-11-12T13:03:59.685Z,10.52
2022-11-12T13:06:47.824Z,11.27
2022-11-12T13:09:33.303Z,10.43
2022-11-12T13:12:19.257Z,11.27
2022-11-12T13:15:12.818Z,10.50
2022-11-12T13:17:58.414Z,9.88
2022-11-12T13:21:22.341Z,10.73
2022-11-12T13:24:13.001Z,8.43
2022-11-12T13:27:01.642Z,10.43
2022-11-12T13:29:47.981Z,6.97
2022-11-12T13:32:48.895Z,11.57
2022-11-12T13:35:40.582Z,11.02
2022-11-12T13:38:26.379Z,14.55
2022-11-12T13:41:12.162Z,14.98
2022-11-12T13:43:57.761Z,12.43
2022-11-12T13:46:43.644Z,8.80
2022-11-12T13:49:29.973Z,8.93
2022-11-12T13:52:18.628Z,9.43
2022-11-12T13:55:15.458Z,10.35
2022-11-12T13:58:00.670Z,8.90
2022-11-12T14:00:57.662Z,10.30
2022-11-12T14:03:46.500Z,9.70
2022-11-12T14:06:42.405Z,8.15
2022-11-12T14:09:34.170Z,13.57
2022-11-12T14:12:25.491Z,12.27
2022-11-12T14:15:29.438Z,10.80
2022-11-12T14:18:35.002Z,7.93
2022-11-12T14:21:20.545Z,9.57
2022-11-12T14:24:10.607Z,9.77
2022-11-12T14:26:56.313Z,10.23
2022-11-12T14:29:43.850Z,10.57
2022-11-12T14:32:36.545Z,10.52
2022-11-12T14:35:29.632Z,9.50
2022-11-12T14:38:29.372Z,8.63
2022-11-12T14:41:36.996Z,10.20
2022-11-12T14:44:38.130Z,10.05
2022-11-12T14:47:24.242Z,10.02
2022-11-12T14:50:27.729Z,8.13
2022-11-12T14:53:37.399Z,8.23
2022-11-12T14:56:35.853Z,8.50
2022-11-12T14:59:21.559Z,9.10
2022-11-12T15:02:34.624Z,9.32
2022-11-12T15:05:22.121Z,7.68
2022-11-12T15:08:12.168Z,8.32
2022-11-12T15:11:20.287Z,8.68
2022-11-12T15:14:20.189Z,10.48
2022-11-12T15:17:06.062Z,8.95
2022-11-12T15:19:51.571Z,12.32
2022-11-12T15:22:36.980Z,15.35
2022-11-12T15:25:32.457Z,9.43
2022-11-12T15:28:23.963Z,9.30
2022-11-12T15:31:21.760Z,11.77
2022-11-12T15:34:41.115Z,11.73
2022-11-12T15:37:28.571Z,11.47
2022-11-12T15:40:20.327Z,9.93
2022-11-12T15:43:19.551Z,9.10
2022-11-12T15:46:04.973Z,15.73
2022-11-12T15:48:55.603Z,16.50
2022-11-12T15:51:41.462Z,12.63
2022-11-12T15:54:26.810Z,12.57
2022-11-12T15:57:16.189Z,11.90
2022-11-12T16:00:08.501Z,10.73
2022-11-12T16:03:00.358Z,13.00
2022-11-12T16:05:46.177Z,16.77
2022-11-12T16:08:31.685Z,14.70
2022-11-12T16:11:35.538Z,15.27
2022-11-12T16:14:24.834Z,15.25
2022-11-12T16:17:16.268Z,17.13
2022-11-12T16:20:01.870Z,21.00
2022-11-12T16:22:50.844Z,21.20
2022-11-12T16:25:38.335Z,20.67
2022-11-12T16:28:23.707Z,22.30
2022-11-12T16:31:09.210Z,19.87
2022-11-12T16:33:54.544Z,19.58
2022-11-12T16:36:40.267Z,17.92
2022-11-12T16:39:25.461Z,21.35
2022-11-12T16:42:11.382Z,18.42
2022-11-12T16:44:56.462Z,15.67
2022-11-12T16:47:50.438Z,21.13
2022-11-12T16:50:35.910Z,14.60
2022-11-12T16:53:21.380Z,18.90
2022-11-12T16:56:21.192Z,17.05
2022-11-12T16:59:06.651Z,17.85
2022-11-12T17:01:52.311Z,19.38
2022-11-12T17:04:37.764Z,18.90
2022-11-12T17:07:23.215Z,16.98
2022-11-12T17:10:09.533Z,20.17
2022-11-12T17:12:54.711Z,16.65
2022-11-12T17:15:40.222Z,14.70
2022-11-12T17:18:25.558Z,18.58
2022-11-12T17:21:14.113Z,21.52
2022-11-12T17:23:59.513Z,30.15
2022-11-12T17:26:45.782Z,39.97
2022-11-12T17:29:31.252Z,30.40
2022-11-12T17:32:16.526Z,18.95
2022-11-12T17:35:01.931Z,15.95
2022-11-12T17:37:47.370Z,17.58
2022-11-12T17:40:32.993Z,14.13
2022-11-12T17:43:18.204Z,16.83
2022-11-12T17:46:04.953Z,24.43
2022-11-12T17:48:50.595Z,22.02
2022-11-12T17:51:35.961Z,20.50
2022-11-12T17:54:21.759Z,20.48
2022-11-12T17:57:06.870Z,18.40
2022-11-12T17:59:52.194Z,21.05
2022-11-12T18:02:37.530Z,19.45
2022-11-12T18:05:22.893Z,18.58
2022-11-12T18:08:08.588Z,22.45
2022-11-12T18:10:53.966Z,17.67
2022-11-12T18:13:39.688Z,17.05
2022-11-12T18:16:27.867Z,16.20
2022-11-12T18:19:13.239Z,20.35
2022-11-12T18:21:59.773Z,19.13
2022-11-12T18:24:45.139Z,25.73
2022-11-12T18:27:30.682Z,17.42
2022-11-12T18:30:19.464Z,17.50
2022-11-12T18:33:05.614Z,16.40
2022-11-12T18:36:11.369Z,16.48
2022-11-12T18:38:56.852Z,15.18
2022-11-12T18:41:42.397Z,18.35
2022-11-12T18:44:27.903Z,18.02
2022-11-12T18:47:13.395Z,19.77
2022-11-12T18:50:01.729Z,18.83
2022-11-12T18:52:49.383Z,20.07
2022-11-12T18:55:35.081Z,15.55
2022-11-12T18:58:20.719Z,14.18
2022-11-12T19:01:15.952Z,17.23
2022-11-12T19:04:01.792Z,21.40
2022-11-12T19:06:47.338Z,21.40
2022-11-12T19:09:32.893Z,18.73
2022-11-12T19:12:18.073Z,16.48
2022-11-12T19:15:04.394Z,16.92
2022-11-12T19:17:49.566Z,19.10
2022-11-12T19:20:34.929Z,21.17
2022-11-12T19:23:20.561Z,19.13
2022-11-12T19:26:08.478Z,18.02
2022-11-12T19:28:54.439Z,22.80
2022-11-12T19:31:40.854Z,21.05
2022-11-12T19:34:26.300Z,20.17
2022-11-12T19:37:32.440Z,16.75
2022-11-12T19:40:17.333Z,17.55
2022-11-12T19:43:02.791Z,23.02
2022-11-12T19:45:48.326Z,16.45
2022-11-12T19:48:33.523Z,18.52
2022-11-12T19:51:18.857Z,22.15
2022-11-12T19:54:04.576Z,20.35
2022-11-12T19:56:50.343Z,19.83
2022-11-12T19:59:35.974Z,20.42
2022-11-12T20:02:21.385Z,18.08
2022-11-12T20:05:06.827Z,17.92
2022-11-12T20:07:52.666Z,17.27
2022-11-12T20:10:38.196Z,16.60
2022-11-12T20:13:23.716Z,18.63
2022-11-12T20:16:14.150Z,20.92
2022-11-12T20:18:59.726Z,17.15
2022-11-12T20:21:45.260Z,28.50
2022-11-12T20:24:30.909Z,24.45
2022-11-12T20:27:17.772Z,23.33
2022-11-12T20:30:04.626Z,19.67
2022-11-12T20:32:49.794Z,17.60
2022-11-12T20:35:36.877Z,18.88
2022-11-12T20:38:22.213Z,19.92
2022-11-12T20:41:12.231Z,28.95
2022-11-12T20:44:00.250Z,11.68
2022-11-12T20:46:46.169Z,20.10
2022-11-12T20:49:31.607Z,14.77
2022-11-12T20:52:17.043Z,27.27
2022-11-12T20:55:02.550Z,20.25
2022-11-12T20:57:47.676Z,22.88
2022-11-12T21:00:33.298Z,26.30
2022-11-12T21:03:18.822Z,23.08
2022-11-12T21:06:06.933Z,21.23
2022-11-12T21:08:52.845Z,24.95
2022-11-12T21:11:38.506Z,27.48
2022-11-12T21:14:23.749Z,29.17
2022-11-12T21:17:10.160Z,27.30
2022-11-12T21:19:55.527Z,29.53
2022-11-12T21:22:40.921Z,17.90
2022-11-12T21:25:26.294Z,24.23
2022-11-12T21:28:11.806Z,26.15
2022-11-12T21:31:09.977Z,23.05
2022-11-12T21:33:58.257Z,21.77
2022-11-12T21:36:43.829Z,26.08
2022-11-12T21:39:29.017Z,25.92
2022-11-12T21:42:14.281Z,23.10
2022-11-12T21:44:59.736Z,22.40
2022-11-12T21:47:45.093Z,19.17
2022-11-12T21:50:30.292Z,21.40
2022-11-12T21:53:17.240Z,21.77
2022-11-12T21:56:08.055Z,12.00
2022-11-12T21:58:54.340Z,10.88
2022-11-12T22:01:40.602Z,11.55
2022-11-12T22:04:25.836Z,13.25
2022-11-12T22:07:11.407Z,11.43
2022-11-12T22:09:57.193Z,15.10
2022-11-12T22:13:05.063Z,18.23
2022-11-12T22:15:50.614Z,19.33
2022-11-12T22:18:36.446Z,16.13
2022-11-12T22:21:25.753Z,13.68
2022-11-12T22:24:11.874Z,11.25
2022-11-12T22:27:01.215Z,13.70
2022-11-12T22:29:49.500Z,11.25
2022-11-12T22:32:34.839Z,68.68
2022-11-12T22:35:20.050Z,10.68
2022-11-12T22:38:05.707Z,11.15
2022-11-12T22:40:51.025Z,12.05
2022-11-12T22:43:39.679Z,8.30
2022-11-12T22:46:35.514Z,8.63
2022-11-12T22:49:20.723Z,13.82
2022-11-12T22:52:07.641Z,29.67
2022-11-12T22:54:53.178Z,23.15
2022-11-12T22:57:38.822Z,17.90
2022-11-12T23:00:30.965Z,21.98
2022-11-12T23:03:16.243Z,19.90
2022-11-12T23:06:04.421Z,17.88
2022-11-12T23:08:49.803Z,20.65
2022-11-12T23:11:37.787Z,21.25
2022-11-12T23:14:23.181Z,18.63
2022-11-12T23:17:08.341Z,18.67
2022-11-12T23:19:54.110Z,19.00
2022-11-12T23:22:39.680Z,20.27
2022-11-12T23:25:24.902Z,21.40
2022-11-12T23:28:10.704Z,21.90
2022-11-12T23:30:55.852Z,25.17
2022-11-12T23:33:45.506Z,24.52
2022-11-12T23:36:32.081Z,20.10
2022-11-12T23:39:17.378Z,16.75
2022-11-12T23:42:02.710Z,18.02
2022-11-12T23:44:48.210Z,14.53
2022-11-12T23:47:33.666Z,15.10
2022-11-12T23:50:19.197Z,11.05
2022-11-12T23:53:04.656Z,14.32
2022-11-12T23:55:50.731Z,96.93
2022-11-12T23:58:37.620Z,7.50
